Time;durP1;ratioP1;P1;durP2;ratioP2;P2;SDS_P1;SDS_P2;PMS_P1;PMS_P2;Temp;Humidity;BMP_temperature;BMP_pressure;BME280_temperature;BME280_humidity;BME280_pressure;Samples;Min_cycle;Max_cycle;Signal;HPM_P1;HPM_P2
2023/09/21 00:01:16;;;;;;;3.83;2.25;;;;;;;17.08;100.00;99985.41;4921352;28;20043;-74
2023/09/21 00:03:44;;;;;;;4.45;2.25;;;;;;;17.07;100.00;99973.00;4879820;28;20055;-74
2023/09/21 00:06:15;;;;;;;3.03;1.92;;;;;;;17.06;100.00;99985.44;4944954;29;20051;-74
2023/09/21 00:08:44;;;;;;;4.28;1.98;;;;;;;17.06;100.00;99977.47;4945572;29;20048;-74
2023/09/21 00:11:12;;;;;;;3.17;1.80;;;;;;;17.07;100.00;99981.00;4944660;29;20047;-74
2023/09/21 00:13:39;;;;;;;7.57;2.13;;;;;;;17.07;100.00;99973.00;4941384;28;20305;-74
2023/09/21 00:16:18;;;;;;;3.78;1.77;;;;;;;17.07;100.00;99975.66;4928724;29;20054;-74
2023/09/21 00:18:46;;;;;;;3.63;2.13;;;;;;;17.06;100.00;99973.94;4895402;28;20039;-74
2023/09/21 00:21:14;;;;;;;5.25;2.30;;;;;;;17.06;100.00;99974.81;4927732;28;20046;-74
2023/09/21 00:23:43;;;;;;;4.13;2.65;;;;;;;17.06;100.00;99980.13;4943046;28;20055;-74
2023/09/21 00:26:12;;;;;;;2.33;1.90;;;;;;;17.07;100.00;99970.34;4934094;29;20046;-74
2023/09/21 00:28:44;;;;;;;2.92;2.30;;;;;;;17.06;100.00;99968.63;4915295;29;20052;-74
2023/09/21 00:31:12;;;;;;;7.45;2.50;;;;;;;17.07;100.00;99960.59;4921098;29;20059;-74
2023/09/21 00:33:40;;;;;;;7.45;1.90;;;;;;;17.05;100.00;99950.91;4872766;29;20806;-74
2023/09/21 00:36:16;;;;;;;2.35;2.10;;;;;;;17.04;100.00;99949.19;4933271;29;20051;-74
2023/09/21 00:38:46;;;;;;;6.55;2.15;;;;;;;17.03;100.00;99940.34;4945909;28;20054;-74
2023/09/21 00:41:14;;;;;;;2.92;1.83;;;;;;;17.04;100.00;99946.53;4943715;29;20050;-74
2023/09/21 00:43:42;;;;;;;6.88;1.90;;;;;;;17.02;100.00;99949.22;4945433;29;20043;-74
2023/09/21 00:46:09;;;;;;;3.40;2.00;;;;;;;17.02;100.00;99945.72;4929119;28;20043;-74
2023/09/21 00:48:42;;;;;;;3.55;2.00;;;;;;;17.01;100.00;99944.81;4948019;28;20062;-74
2023/09/21 00:51:13;;;;;;;3.25;2.00;;;;;;;17.01;100.00;99922.69;4873456;29;20502;-74
2023/09/21 00:53:44;;;;;;;4.45;2.35;;;;;;;17.01;100.00;99920.00;4928436;29;20047;-74
2023/09/21 00:56:17;;;;;;;5.80;2.35;;;;;;;17.00;100.00;99921.81;4943943;28;20055;-74
2023/09/21 00:58:48;;;;;;;2.22;2.03;;;;;;;16.99;100.00;99914.75;4943814;29;20423;-74
2023/09/21 01:01:16;;;;;;;;;;;;;;;16.98;100.00;99902.38;4947783;28;20054;-74
2023/09/21 01:03:45;;;;;;;5.78;1.95;;;;;;;17.00;100.00;99902.31;4933708;28;23268;-74
2023/09/21 01:06:18;;;;;;;2.90;2.08;;;;;;;17.00;100.00;99903.19;4892321;28;20054;-74
2023/09/21 01:08:46;;;;;;;2.88;2.13;;;;;;;17.00;100.00;99895.19;4943650;29;20043;-74
2023/09/21 01:11:15;;;;;;;3.92;2.40;;;;;;;17.00;100.00;99897.00;4944434;29;20070;-74
2023/09/21 01:13:43;;;;;;;7.20;2.15;;;;;;;17.00;100.00;99894.34;4955705;28;20050;-74
2023/09/21 01:16:15;;;;;;;2.35;2.03;;;;;;;16.99;100.00;99887.28;4941775;29;20051;-74
2023/09/21 01:18:43;;;;;;;3.70;2.10;;;;;;;16.98;100.00;99890.88;4908259;29;20062;-74
2023/09/21 01:21:13;;;;;;;3.45;2.13;;;;;;;16.98;100.00;99882.88;4857568;29;20056;-74
2023/09/21 01:23:46;;;;;;;4.55;2.55;;;;;;;16.96;100.00;99880.28;4944199;29;20051;-74
2023/09/21 01:26:14;;;;;;;3.42;2.20;;;;;;;16.96;100.00;99877.63;4940546;29;20433;-73
2023/09/21 01:28:49;;;;;;;4.28;2.03;;;;;;;16.95;100.00;99871.41;4943506;28;20075;-73
2023/09/21 01:31:18;;;;;;;3.35;2.28;;;;;;;16.94;100.00;99872.34;4956980;28;20066;-73
2023/09/21 01:33:46;;;;;;;5.72;2.20;;;;;;;16.94;100.00;99859.03;4916127;29;20051;-73
2023/09/21 01:36:15;;;;;;;4.45;2.10;;;;;;;16.94;100.00;99860.84;4866157;29;20495;-73
2023/09/21 01:38:46;;;;;;;2.05;1.75;;;;;;;16.93;100.00;99859.97;4904725;29;20044;-74
2023/09/21 01:41:16;;;;;;;5.47;2.55;;;;;;;16.94;100.00;99855.53;4933813;29;20052;-73
2023/09/21 01:43:44;;;;;;;4.38;2.10;;;;;;;16.94;100.00;99855.53;4931672;29;20051;-73
2023/09/21 01:46:14;;;;;;;4.82;2.38;;;;;;;16.95;100.00;99850.13;4930576;29;20418;-73
2023/09/21 01:48:41;;;;;;;3.22;1.83;;;;;;;16.96;100.00;99845.69;4938428;28;21028;-73
2023/09/21 01:51:12;;;;;;;6.00;2.63;;;;;;;16.96;100.00;99843.03;4859045;29;20056;-73
2023/09/21 01:53:39;;;;;;;2.90;1.87;;;;;;;16.97;100.00;99841.22;4928311;29;20419;-73
2023/09/21 01:56:07;;;;;;;2.25;1.67;;;;;;;16.99;100.00;99836.72;4912100;29;20308;-73
2023/09/21 01:58:34;;;;;;;4.10;1.90;;;;;;;17.00;100.00;99831.34;4910182;29;20063;-73
2023/09/21 02:01:03;;;;;;;5.28;1.77;;;;;;;17.01;100.00;99833.03;4911798;29;20055;-73
2023/09/21 02:03:31;;;;;;;3.60;1.88;;;;;;;17.01;100.00;99822.41;4925891;29;20051;-73
2023/09/21 02:06:02;;;;;;;5.00;2.08;;;;;;;17.03;100.00;99823.22;4925354;28;20050;-73
2023/09/21 02:08:33;;;;;;;5.82;1.80;;;;;;;17.05;100.00;99824.03;4885393;29;20047;-73
2023/09/21 02:11:00;;;;;;;2.80;1.88;;;;;;;17.08;100.00;99821.22;4944525;29;20043;-73
2023/09/21 02:13:30;;;;;;;2.58;1.80;;;;;;;17.12;100.00;99824.66;4910097;29;20043;-73
2023/09/21 02:15:57;;;;;;;3.60;1.98;;;;;;;17.12;100.00;99814.84;4944295;28;20067;-73
2023/09/21 02:18:24;;;;;;;2.50;2.00;;;;;;;17.14;100.00;99818.34;4926789;29;20090;-73
2023/09/21 02:20:55;;;;;;;2.58;2.05;;;;;;;17.18;100.00;99810.22;4927294;28;20055;-73
2023/09/21 02:23:24;;;;;;;3.42;1.80;;;;;;;17.18;100.00;99808.41;4826023;29;20048;-73
2023/09/21 02:25:53;;;;;;;2.53;1.67;;;;;;;17.19;100.00;99807.50;4943619;29;20506;-73
2023/09/21 02:28:22;;;;;;;4.18;1.90;;;;;;;17.20;100.00;99809.25;4940813;29;20454;-73
2023/09/21 02:30:51;;;;;;;2.70;1.80;;;;;;;17.18;100.00;99794.25;4940317;29;20499;-73
2023/09/21 02:33:19;;;;;;;2.33;1.80;;;;;;;17.19;100.00;99793.34;4937911;29;20059;-73
2023/09/21 02:35:47;;;;;;;2.30;2.10;;;;;;;17.17;100.00;99797.84;4935489;28;20054;-73
2023/09/21 02:38:21;;;;;;;3.00;2.00;;;;;;;17.15;100.00;99785.47;4842986;29;20142;-73
2023/09/21 02:40:49;;;;;;;2.67;1.70;;;;;;;17.14;100.00;99794.41;4923041;29;20418;-73
2023/09/21 02:43:16;;;;;;;2.65;1.88;;;;;;;17.14;100.00;99785.50;4893153;29;20051;-73
2023/09/21 02:45:45;;;;;;;5.97;1.95;;;;;;;17.12;100.00;99785.56;4915614;29;20052;-73
2023/09/21 02:48:15;;;;;;;2.45;1.70;;;;;;;17.12;100.00;99790.91;4956922;28;20493;-73
2023/09/21 02:50:47;;;;;;;5.95;1.80;;;;;;;17.13;100.00;99786.47;4952191;28;20055;-73
2023/09/21 02:53:16;;;;;;;4.03;1.90;;;;;;;17.12;100.00;99769.59;4922909;28;20047;-73
2023/09/21 02:55:44;;;;;;;3.10;1.92;;;;;;;17.10;100.00;99776.78;4884205;29;20425;-73
2023/09/21 02:58:13;;;;;;;2.75;2.03;;;;;;;17.09;100.00;99772.41;4898467;29;20044;-73
2023/09/21 03:00:53;;;;;;;3.00;2.10;;;;;;;17.07;100.00;99768.94;4962262;28;20395;-73
2023/09/21 03:03:21;;;;;;;2.95;1.55;;;;;;;17.07;100.00;99770.72;4937120;29;20046;-73
2023/09/21 03:05:52;;;;;;;3.55;2.13;;;;;;;17.05;100.00;99762.81;4930434;29;20066;-73
2023/09/21 03:08:23;;;;;;;4.53;1.60;;;;;;;17.05;100.00;99768.16;4912061;29;20552;-75
2023/09/21 03:10:56;;;;;;;2.17;1.63;;;;;;;17.04;100.00;99755.75;4915230;28;20074;-73
2023/09/21 03:13:24;;;;;;;4.30;2.08;;;;;;;17.02;100.00;99768.25;4959230;28;20058;-75
2023/09/21 03:15:58;;;;;;;2.20;2.00;;;;;;;17.01;100.00;99761.19;4955255;28;20048;-73
2023/09/21 03:18:29;;;;;;;2.08;1.80;;;;;;;16.99;100.00;99754.22;4957929;28;20035;-73
2023/09/21 03:21:11;;;;;;;2.22;1.70;;;;;;;16.98;100.00;99761.34;4929511;29;20043;-73
2023/09/21 03:23:39;;;;;;;2.10;1.45;;;;;;;16.96;100.00;99755.22;4887032;29;20070;-73
2023/09/21 03:26:11;;;;;;;3.67;1.98;;;;;;;16.96;100.00;99765.84;4884002;29;20047;-73
2023/09/21 03:28:40;;;;;;;4.00;1.83;;;;;;;16.94;100.00;99754.41;4921935;29;20418;-73
2023/09/21 03:31:09;;;;;;;2.47;2.10;;;;;;;16.93;100.00;99755.31;4957921;28;20059;-73
2023/09/21 03:33:36;;;;;;;2.47;2.10;;;;;;;16.91;100.00;99755.38;4927700;29;20051;-73
2023/09/21 03:36:04;;;;;;;2.38;2.08;;;;;;;16.90;100.00;99753.66;4929816;29;20058;-73
2023/09/21 03:38:32;;;;;;;3.72;1.90;;;;;;;16.88;100.00;99757.28;4946143;28;20039;-73
2023/09/21 03:41:00;;;;;;;2.22;2.00;;;;;;;16.88;100.00;99757.28;4916092;28;20059;-73
2023/09/21 03:43:27;;;;;;;3.28;2.00;;;;;;;16.86;100.00;99751.16;4942515;29;20055;-73
2023/09/21 03:45:55;;;;;;;1.77;1.50;;;;;;;16.86;100.00;99756.50;4929391;29;20048;-73
2023/09/21 03:48:22;;;;;;;3.65;1.77;;;;;;;16.83;100.00;99746.84;4958248;28;20498;-73
2023/09/21 03:50:51;;;;;;;1.98;1.75;;;;;;;16.82;100.00;99754.84;4961108;28;20100;-73
2023/09/21 03:53:19;;;;;;;3.22;1.77;;;;;;;16.80;100.00;99748.72;4914511;29;20413;-73
2023/09/21 03:55:47;;;;;;;3.20;1.88;;;;;;;16.78;100.00;99751.44;4926569;29;20061;-74
2023/09/21 03:58:14;;;;;;;5.15;1.92;;;;;;;16.77;100.00;99744.41;4913349;28;20043;-74
2023/09/21 04:00:42;;;;;;;5.05;1.90;;;;;;;16.75;100.00;99741.81;4960356;28;20051;-74
2023/09/21 04:03:10;;;;;;;2.35;1.70;;;;;;;16.74;100.00;99748.03;4929026;28;20048;-73
2023/09/21 04:05:47;;;;;;;4.22;1.95;;;;;;;16.72;100.00;99736.59;4955738;28;20059;-74
2023/09/21 04:08:14;;;;;;;4.88;1.73;;;;;;;16.72;100.00;99741.06;4929065;28;20047;-74
2023/09/21 04:10:42;;;;;;;2.88;1.63;;;;;;;16.70;100.00;99741.13;4922873;29;20047;-74
2023/09/21 04:13:09;;;;;;;2.05;1.48;;;;;;;16.70;100.00;99751.75;4914448;28;20047;-74
2023/09/21 04:15:36;;;;;;;4.38;1.88;;;;;;;16.70;100.00;99740.25;4941580;28;20430;-74
2023/09/21 04:18:04;;;;;;;3.28;1.95;;;;;;;16.69;100.00;99734.06;4928953;29;20047;-74
2023/09/21 04:20:34;;;;;;;4.43;1.80;;;;;;;16.68;100.00;99736.78;4922930;28;20052;-74
2023/09/21 04:23:03;;;;;;;2.65;1.90;;;;;;;16.67;100.00;99746.56;4921175;29;20058;-74
2023/09/21 04:25:32;;;;;;;3.38;1.88;;;;;;;16.66;100.00;99741.31;4939940;28;20048;-74
2023/09/21 04:28:00;;;;;;;3.35;1.73;;;;;;;16.65;100.00;99740.41;4882692;28;20931;-74
2023/09/21 04:30:28;;;;;;;3.67;2.22;;;;;;;16.64;100.00;99736.03;4942366;28;20055;-74
2023/09/21 04:32:57;;;;;;;4.88;1.83;;;;;;;16.64;100.00;99732.53;4934789;29;20068;-74
2023/09/21 04:35:26;;;;;;;5.53;1.88;;;;;;;16.61;100.00;99728.19;4944747;28;20709;-77
2023/09/21 04:37:56;;;;;;;2.47;1.92;;;;;;;16.60;100.00;99725.56;4930883;29;20051;-77
2023/09/21 04:40:25;;;;;;;2.97;1.95;;;;;;;16.60;100.00;99728.22;4899423;29;20046;-77
2023/09/21 04:42:56;;;;;;;2.35;1.85;;;;;;;16.57;100.00;99714.13;4915077;29;20051;-76
2023/09/21 04:45:26;;;;;;;2.30;1.80;;;;;;;16.57;100.00;99723.91;4898917;28;20067;-77
2023/09/21 04:48:03;;;;;;;2.55;1.75;;;;;;;16.56;100.00;99719.53;4930866;29;20051;-76
2023/09/21 04:50:34;;;;;;;2.00;1.70;;;;;;;16.55;100.00;99723.09;4938500;29;20067;-76
2023/09/21 04:53:02;;;;;;;2.88;1.88;;;;;;;16.54;100.00;99718.69;4911400;29;20047;-76
2023/09/21 04:55:31;;;;;;;1.75;1.65;;;;;;;16.52;100.00;99717.91;4908854;29;20051;-76
2023/09/21 04:57:59;;;;;;;2.40;1.90;;;;;;;16.51;100.00;99713.53;4929713;28;20058;-76
2023/09/21 05:00:28;;;;;;;3.10;1.67;;;;;;;16.51;100.00;99710.88;4879153;29;20059;-76
2023/09/21 05:02:55;;;;;;;1.98;1.88;;;;;;;16.50;100.00;99720.63;4923876;29;20062;-77
2023/09/21 05:05:26;;;;;;;2.70;1.70;;;;;;;16.50;100.00;99719.75;4913317;29;20052;-76
2023/09/21 05:07:54;;;;;;;1.38;1.27;;;;;;;16.50;100.00;99719.75;4904434;29;20047;-77
2023/09/21 05:10:22;;;;;;;4.85;1.55;;;;;;;16.50;100.00;99722.41;4889357;29;20039;-77
2023/09/21 05:12:51;;;;;;;3.72;2.38;;;;;;;16.50;100.00;99722.41;4929751;28;20836;-76
2023/09/21 05:15:19;;;;;;;3.20;2.45;;;;;;;16.51;100.00;99718.84;4901592;28;20050;-77
2023/09/21 05:17:47;;;;;;;3.60;1.63;;;;;;;16.51;100.00;99719.69;4929739;29;20047;-77
2023/09/21 05:20:15;;;;;;;5.10;1.30;;;;;;;16.52;100.00;99729.41;4931451;29;20493;-77
2023/09/21 05:22:42;;;;;;;2.42;1.52;;;;;;;16.52;100.00;99721.44;4916738;28;20051;-77
2023/09/21 05:25:10;;;;;;;4.03;1.65;;;;;;;16.52;100.00;99720.56;4918068;28;20051;-78
2023/09/21 05:27:40;;;;;;;2.65;1.60;;;;;;;16.52;100.00;99723.22;4930808;28;21426;-77
2023/09/21 05:30:09;;;;;;;2.15;1.95;;;;;;;16.53;100.00;99727.63;4897624;29;20490;-77
2023/09/21 05:32:38;;;;;;;3.70;1.83;;;;;;;16.54;100.00;99724.03;4936558;28;20043;-77
2023/09/21 05:35:07;;;;;;;4.18;1.50;;;;;;;16.53;100.00;99732.94;4931688;29;20058;-76
2023/09/21 05:37:35;;;;;;;3.38;1.83;;;;;;;16.54;100.00;99719.59;4928719;29;20051;-77
2023/09/21 05:40:05;;;;;;;3.90;1.77;;;;;;;16.56;100.00;99730.16;4961245;28;20063;-77
2023/09/21 05:42:34;;;;;;;4.43;1.77;;;;;;;16.59;100.00;99729.19;4930026;28;20058;-77
2023/09/21 05:45:01;;;;;;;1.20;1.20;;;;;;;16.61;100.00;99735.28;4937097;28;20051;-77
2023/09/21 05:47:29;;;;;;;3.67;1.58;;;;;;;16.65;100.00;99731.59;4897040;29;20050;-76
2023/09/21 05:49:57;;;;;;;1.45;1.35;;;;;;;16.68;100.00;99731.47;4946490;28;20055;-77
2023/09/21 05:52:25;;;;;;;1.95;1.60;;;;;;;16.73;100.00;99734.81;4931467;29;20051;-76
2023/09/21 05:54:53;;;;;;;3.08;1.52;;;;;;;16.79;100.00;99739.03;4946661;29;20054;-77
2023/09/21 05:57:21;;;;;;;3.28;1.63;;;;;;;16.84;100.00;99732.63;4923220;29;20051;-76
2023/09/21 05:59:49;;;;;;;2.80;1.65;;;;;;;16.91;100.00;99727.91;4928565;29;20428;-77
2023/09/21 06:02:16;;;;;;;3.28;1.73;;;;;;;16.99;100.00;99732.91;4872232;29;20148;-77
2023/09/21 06:04:44;;;;;;;5.30;1.83;;;;;;;17.04;100.00;99733.59;4930493;29;20073;-77
2023/09/21 06:07:11;;;;;;;2.45;1.50;;;;;;;17.12;100.00;99739.47;4953586;28;20114;-76
2023/09/21 06:09:39;;;;;;;3.00;1.73;;;;;;;17.17;100.00;99734.81;4929658;29;20055;-77
2023/09/21 06:12:07;;;;;;;4.40;2.05;;;;;;;17.21;100.00;99731.09;4959762;28;20047;-77
2023/09/21 06:14:38;;;;;;;1.92;1.50;;;;;;;17.25;100.00;99732.69;4895702;29;20048;-76
2023/09/21 06:17:06;;;;;;;;;;;;;;;17.28;100.00;99732.59;4902451;28;20059;-77
2023/09/21 06:19:35;;;;;;;3.95;1.77;;;;;;;17.34;100.00;99731.47;4960947;28;19923;-77
2023/09/21 06:22:02;;;;;;;2.13;1.60;;;;;;;17.38;100.00;99733.06;4947341;29;20043;-77
2023/09/21 06:24:31;;;;;;;2.13;1.67;;;;;;;17.40;100.00;99728.53;4928783;29;20050;-77
2023/09/21 06:26:59;;;;;;;2.88;2.03;;;;;;;17.43;100.00;99741.72;4944066;28;20039;-77
2023/09/21 06:29:26;;;;;;;3.33;1.38;;;;;;;17.45;100.00;99742.50;4922669;28;20055;-76
2023/09/21 06:31:54;;;;;;;2.58;1.27;;;;;;;17.46;100.00;99733.56;4900987;28;20054;-77
2023/09/21 06:34:25;;;;;;;2.35;1.73;;;;;;;17.48;100.00;99720.19;4944705;29;20043;-76
2023/09/21 06:36:56;;;;;;;3.75;1.70;;;;;;;17.49;100.00;99721.94;4943812;29;20047;-77
2023/09/21 06:39:23;;;;;;;3.80;1.33;;;;;;;17.51;100.00;99723.59;4927360;29;20619;-76
2023/09/21 06:41:51;;;;;;;2.70;1.40;;;;;;;17.52;100.00;99722.69;4929635;29;20055;-77
2023/09/21 06:44:20;;;;;;;2.50;1.90;;;;;;;17.56;100.00;99722.53;4914150;29;20406;-76
2023/09/21 06:46:47;;;;;;;3.95;1.38;;;;;;;17.58;100.00;99718.88;4937727;29;20047;-76
2023/09/21 06:49:14;;;;;;;2.03;1.40;;;;;;;17.61;100.00;99724.06;4880391;29;20051;-77
2023/09/21 06:51:42;;;;;;;5.15;1.33;;;;;;;17.66;100.00;99721.22;4928640;29;20055;-77
2023/09/21 06:54:09;;;;;;;2.20;1.88;;;;;;;17.67;100.00;99723.78;4912247;29;20051;-76
2023/09/21 06:56:37;;;;;;;4.00;1.83;;;;;;;17.69;100.00;99715.72;4886702;29;20048;-76
2023/09/21 06:59:06;;;;;;;1.88;1.67;;;;;;;17.73;100.00;99722.66;4926744;29;20047;-76
2023/09/21 07:01:34;;;;;;;3.55;1.80;;;;;;;17.76;100.00;99713.69;4949058;28;20055;-76
2023/09/21 07:04:03;;;;;;;3.20;1.95;;;;;;;17.78;100.00;99712.66;4885507;29;20055;-76
2023/09/21 07:06:31;;;;;;;5.35;1.38;;;;;;;17.82;100.00;99714.25;4913031;29;20446;-76
2023/09/21 07:09:00;;;;;;;6.85;1.52;;;;;;;17.84;100.00;99717.75;4958382;28;20105;-76
2023/09/21 07:11:28;;;;;;;1.38;1.23;;;;;;;17.85;100.00;99708.81;4896335;29;20059;-76
2023/09/21 07:13:55;;;;;;;1.25;1.13;;;;;;;17.88;100.00;99710.47;4904448;29;20490;-76
2023/09/21 07:16:22;;;;;;;5.32;1.40;;;;;;;17.88;100.00;99708.69;4931695;29;20063;-76
2023/09/21 07:18:53;;;;;;;1.75;1.40;;;;;;;17.90;100.00;99705.94;4929798;28;20062;-77
2023/09/21 07:21:20;;;;;;;3.78;1.75;;;;;;;17.90;100.00;99709.50;4881743;29;20457;-76
2023/09/21 07:23:48;;;;;;;2.42;1.88;;;;;;;17.91;100.00;99705.03;4927642;28;20056;-77
2023/09/21 07:26:15;;;;;;;2.28;1.80;;;;;;;17.92;100.00;99706.75;4942211;29;20899;-76
2023/09/21 07:28:45;;;;;;;3.03;1.60;;;;;;;17.92;100.00;99715.63;4916874;29;20043;-77
2023/09/21 07:31:13;;;;;;;3.10;1.50;;;;;;;17.92;100.00;99712.94;4939339;28;20059;-77
2023/09/21 07:33:41;;;;;;;1.50;1.15;;;;;;;17.94;100.00;99710.22;4913094;29;20055;-77
2023/09/21 07:36:11;;;;;;;2.72;1.27;;;;;;;17.95;100.00;99711.06;4892825;28;20052;-77
2023/09/21 07:38:39;;;;;;;2.03;1.38;;;;;;;17.97;100.00;99706.53;4938860;28;20494;-76
2023/09/21 07:41:07;;;;;;;5.03;1.70;;;;;;;17.98;100.00;99710.94;4924285;29;20401;-77
2023/09/21 07:43:35;;;;;;;1.85;1.50;;;;;;;17.99;100.00;99718.00;4943687;29;20047;-76
2023/09/21 07:46:02;;;;;;;3.60;1.75;;;;;;;18.00;100.00;99709.06;4937370;28;20047;-76
2023/09/21 07:48:30;;;;;;;2.15;1.65;;;;;;;18.00;100.00;99717.94;4927568;28;20054;-76
2023/09/21 07:51:04;;;;;;;3.70;1.50;;;;;;;18.00;100.00;99720.59;4867173;29;20058;-77
2023/09/21 07:53:31;;;;;;;3.38;1.65;;;;;;;18.02;100.00;99729.38;4944486;29;20054;-77
2023/09/21 07:56:01;;;;;;;5.70;2.08;;;;;;;18.02;100.00;99728.53;4928819;29;20422;-77
2023/09/21 07:58:29;;;;;;;4.15;3.08;;;;;;;18.03;100.00;99730.25;4941868;29;20847;-77
2023/09/21 08:00:56;;;;;;;2.30;1.63;;;;;;;18.04;100.00;99737.31;4925966;28;20043;-76
2023/09/21 08:03:26;;;;;;;1.98;1.88;;;;;;;18.04;100.00;99732.84;4931438;28;20040;-77
2023/09/21 08:05:54;;;;;;;2.72;1.60;;;;;;;18.06;100.00;99730.13;4925544;29;20454;-76
2023/09/21 08:08:23;;;;;;;3.28;1.95;;;;;;;18.07;100.00;99729.16;4880715;28;20062;-77
2023/09/21 08:10:51;;;;;;;6.30;2.85;;;;;;;18.10;100.00;99731.69;4927978;29;20502;-77
2023/09/21 08:13:20;;;;;;;4.28;1.90;;;;;;;18.12;100.00;99735.16;4901494;29;20051;-76
2023/09/21 08:15:48;;;;;;;3.78;1.75;;;;;;;18.15;100.00;99735.03;4937527;28;20055;-76
2023/09/21 08:18:15;;;;;;;3.70;2.40;;;;;;;18.17;100.00;99738.50;4935752;28;20047;-76
2023/09/21 08:20:43;;;;;;;1.70;1.58;;;;;;;18.19;100.00;99743.75;4900827;29;20067;-77
2023/09/21 08:23:10;;;;;;;4.30;1.77;;;;;;;18.23;100.00;99750.69;4868052;28;20043;-76
2023/09/21 08:25:38;;;;;;;4.00;1.55;;;;;;;18.25;100.00;99749.66;4932667;28;20058;-76
2023/09/21 08:28:07;;;;;;;3.25;1.40;;;;;;;18.27;100.00;99755.78;4924366;29;20055;-76
2023/09/21 08:30:34;;;;;;;4.75;1.90;;;;;;;18.30;100.00;99752.97;4933366;28;20082;-76
2023/09/21 08:33:08;;;;;;;4.15;1.70;;;;;;;18.31;100.00;99757.38;4907765;29;20521;-76
2023/09/21 08:35:35;;;;;;;2.38;1.65;;;;;;;18.32;100.00;99760.91;4930620;28;20051;-76
2023/09/21 08:38:03;;;;;;;7.13;2.15;;;;;;;18.33;100.00;99756.44;4910126;29;20062;-76
2023/09/21 08:40:34;;;;;;;2.78;1.90;;;;;;;18.32;100.00;99760.91;4889678;29;20051;-76
2023/09/21 08:43:01;;;;;;;3.83;2.08;;;;;;;18.31;100.00;99776.03;4931591;28;20066;-76
2023/09/21 08:45:29;;;;;;;2.15;1.75;;;;;;;18.28;100.00;99764.66;4901899;29;20055;-76
2023/09/21 08:47:56;;;;;;;2.50;1.75;;;;;;;18.26;100.00;99770.06;4944458;29;20035;-76
2023/09/21 08:50:25;;;;;;;2.35;1.73;;;;;;;18.25;100.00;99775.47;4911051;28;20940;-76
2023/09/21 08:52:54;;;;;;;4.30;2.00;;;;;;;18.24;100.00;99769.28;4931575;29;20430;-76
2023/09/21 08:55:25;;;;;;;1.90;1.80;;;;;;;18.23;100.00;99774.66;4897084;29;20043;-76
2023/09/21 08:57:53;;;;;;;4.95;2.05;;;;;;;18.20;100.00;99769.47;4959443;28;20128;-76
2023/09/21 09:00:26;;;;;;;2.13;1.77;;;;;;;18.20;100.00;99777.47;4938202;29;20051;-75
2023/09/21 09:02:54;;;;;;;3.60;2.03;;;;;;;18.17;100.00;99788.28;4897368;29;20826;-76
2023/09/21 09:05:21;;;;;;;4.05;2.03;;;;;;;18.17;100.00;99788.28;4927156;28;20281;-76
2023/09/21 09:07:49;;;;;;;2.17;1.70;;;;;;;18.12;100.00;99780.47;4926878;29;20059;-76
2023/09/21 09:10:18;;;;;;;4.53;1.83;;;;;;;18.10;100.00;99791.22;4866432;29;20415;-76
2023/09/21 09:12:46;;;;;;;4.57;2.10;;;;;;;18.06;100.00;99789.63;4923573;29;20062;-76
2023/09/21 09:15:14;;;;;;;2.95;2.00;;;;;;;18.04;100.00;99798.63;4919843;29;20063;-76
2023/09/21 09:17:42;;;;;;;2.33;1.98;;;;;;;17.97;100.00;99799.81;4919931;29;20120;-76
2023/09/21 09:20:12;;;;;;;3.33;1.85;;;;;;;17.90;100.00;99793.88;4926461;29;20620;-77
2023/09/21 09:22:39;;;;;;;3.60;1.75;;;;;;;17.85;100.00;99802.09;4915800;29;20051;-76
2023/09/21 09:25:10;;;;;;;5.13;2.15;;;;;;;17.81;100.00;99808.47;4874995;29;20058;-76
2023/09/21 09:27:41;;;;;;;4.60;1.80;;;;;;;17.79;100.00;99813.00;4944144;29;20047;-77
2023/09/21 09:30:11;;;;;;;4.32;1.90;;;;;;;17.77;100.00;99808.63;4924795;29;20434;-77
2023/09/21 09:32:42;;;;;;;1.98;1.83;;;;;;;17.72;100.00;99803.53;4924675;28;20048;-77
2023/09/21 09:35:12;;;;;;;2.10;1.85;;;;;;;17.69;100.00;99811.63;4911849;28;20066;-76
2023/09/21 09:37:42;;;;;;;3.65;2.63;;;;;;;17.65;100.00;99812.72;4933499;29;20043;-76
2023/09/21 09:40:13;;;;;;;4.90;2.17;;;;;;;17.63;100.00;99822.56;4901337;28;20043;-76
2023/09/21 09:42:41;;;;;;;1.95;1.85;;;;;;;17.59;100.00;99804.97;4941817;29;20047;-78
2023/09/21 09:45:18;;;;;;;3.25;2.28;;;;;;;17.56;100.00;99821.09;4911605;29;20060;-76
2023/09/21 09:47:57;;;;;;;3.33;1.92;;;;;;;17.51;100.00;99822.16;4942825;29;20510;-76
2023/09/21 09:50:25;;;;;;;4.68;2.33;;;;;;;17.49;100.00;99818.69;4915577;29;20063;-76
2023/09/21 09:53:01;;;;;;;4.07;2.38;;;;;;;17.48;100.00;99819.59;4894578;28;20054;-75
2023/09/21 09:55:32;;;;;;;4.00;2.35;;;;;;;17.47;100.00;99819.69;4895774;28;20058;-75
2023/09/21 09:58:01;;;;;;;6.78;2.83;;;;;;;17.45;100.00;99819.75;4941995;29;20062;-75
2023/09/21 10:00:30;;;;;;;5.38;2.90;;;;;;;17.40;100.00;99834.19;4929942;29;20055;-76
2023/09/21 10:02:58;;;;;;;3.78;2.80;;;;;;;17.35;100.00;99837.00;4943799;29;20058;-76
2023/09/21 10:05:27;;;;;;;4.82;2.67;;;;;;;17.32;100.00;99834.50;4937689;29;20044;-75
2023/09/21 10:08:02;;;;;;;7.75;3.00;;;;;;;17.27;100.00;99841.78;4903943;29;20056;-75
2023/09/21 10:10:37;;;;;;;5.70;2.60;;;;;;;17.20;100.00;99838.53;4879764;28;20044;-76
2023/09/21 10:13:05;;;;;;;1.58;1.33;;;;;;;17.07;100.00;99851.47;4928000;29;20047;-75
2023/09/21 10:15:33;;;;;;;1.00;0.90;;;;;;;16.90;100.00;99851.22;4928877;29;20059;-76
2023/09/21 10:18:01;;;;;;;1.08;0.85;;;;;;;16.76;100.00;99844.59;4928409;29;20569;-76
2023/09/21 10:20:32;;;;;;;0.98;0.82;;;;;;;16.66;100.00;99851.22;4904662;28;20058;-75
2023/09/21 10:23:05;;;;;;;2.10;0.80;;;;;;;16.55;100.00;99864.91;4930778;29;20383;-75
2023/09/21 10:25:38;;;;;;;1.67;0.85;;;;;;;16.44;100.00;99869.75;4943158;29;20070;-75
2023/09/21 10:28:33;;;;;;;1.08;0.55;;;;;;;16.30;100.00;99856.97;4884323;29;20051;-76
2023/09/21 10:31:11;;;;;;;1.00;0.82;;;;;;;16.22;100.00;99858.16;4927644;29;20042;-76
2023/09/21 10:34:04;;;;;;;0.68;0.57;;;;;;;16.13;100.00;99849.59;4927809;29;20519;-75
2023/09/21 10:36:31;;;;;;;3.15;0.98;;;;;;;16.08;100.00;99862.19;4952514;28;20055;-75
2023/09/21 10:39:25;;;;;;;0.60;0.60;;;;;;;16.03;100.00;99861.50;4910296;29;20055;-75
2023/09/21 10:42:03;;;;;;;0.93;0.57;;;;;;;16.01;100.00;99862.44;4940827;29;20410;-76
2023/09/21 10:44:53;;;;;;;9.85;1.38;;;;;;;16.01;100.00;99860.69;4912077;29;20421;-76
2023/09/21 10:47:29;;;;;;;0.77;0.57;;;;;;;16.01;100.00;99875.75;4943715;28;20055;-76
2023/09/21 10:49:58;;;;;;;2.05;0.60;;;;;;;16.00;100.00;99874.88;4945688;29;20174;-76
2023/09/21 10:52:27;;;;;;;1.98;0.70;;;;;;;15.97;100.00;99882.94;4918590;29;20066;-76
2023/09/21 10:54:56;;;;;;;0.60;0.60;;;;;;;15.94;100.00;99883.94;4905126;29;20431;-76
2023/09/21 10:57:24;;;;;;;1.30;0.60;;;;;;;15.90;100.00;99869.03;4915231;28;20082;-76
2023/09/21 10:59:53;;;;;;;1.17;0.90;;;;;;;15.90;100.00;99877.00;4923723;28;20046;-75
2023/09/21 11:02:40;;;;;;;0.90;0.65;;;;;;;15.89;100.00;99880.56;4931520;29;20502;-78
2023/09/21 11:05:09;;;;;;;2.45;0.93;;;;;;;15.87;100.00;99881.53;4916759;29;20046;-77
2023/09/21 11:07:40;;;;;;;1.33;1.05;;;;;;;15.85;100.00;99894.88;4910930;29;20419;-77
2023/09/21 11:10:10;;;;;;;1.23;0.60;;;;;;;15.84;100.00;99892.25;4909420;29;20048;-76
2023/09/21 11:12:42;;;;;;;1.15;0.80;;;;;;;15.83;100.00;99891.41;4914019;28;20044;-75
2023/09/21 11:15:16;;;;;;;1.42;0.80;;;;;;;15.81;100.00;99874.63;4938303;28;20047;-75
2023/09/21 11:17:46;;;;;;;0.93;0.82;;;;;;;15.82;100.00;99849.78;4920158;29;20442;-76
2023/09/21 11:20:19;;;;;;;0.60;0.60;;;;;;;15.87;100.00;99839.03;4945774;28;20051;-76
2023/09/21 11:22:49;;;;;;;0.70;0.70;;;;;;;15.92;100.00;99829.97;4924364;28;20069;-76
2023/09/21 11:25:22;;;;;;;0.85;0.82;;;;;;;16.00;100.00;99850.97;4918292;28;20055;-76
2023/09/21 11:27:50;;;;;;;0.40;0.40;;;;;;;16.06;100.00;99855.19;4889118;28;20054;-76
2023/09/21 11:30:18;;;;;;;0.60;0.60;;;;;;;16.09;100.00;99855.09;4901759;29;20418;-76
2023/09/21 11:32:47;;;;;;;1.00;0.90;;;;;;;16.10;100.00;99862.13;4938340;29;20038;-76
2023/09/21 11:35:16;;;;;;;2.15;0.80;;;;;;;16.09;100.00;99863.06;4946705;28;20047;-76
2023/09/21 11:37:46;;;;;;;1.52;0.80;;;;;;;16.08;100.00;99859.53;4923710;28;20507;-75